sensor_id;sensor_type;location;lat;lon;timestamp;P1;durP1;ratioP1;P2;durP2;ratioP2
9789;SDS011;4934;50.852;8.098;2022-07-17T00:00:23;4.00;;;1.75;;
9789;SDS011;4934;50.852;8.098;2022-07-17T00:02:49;6.57;;;2.00;;
9789;SDS011;4934;50.852;8.098;2022-07-17T00:05:14;2.55;;;1.95;;
9789;SDS011;4934;50.852;8.098;2022-07-17T00:07:40;3.80;;;1.95;;
9789;SDS011;4934;50.852;8.098;2022-07-17T00:10:06;3.33;;;2.10;;
9789;SDS011;4934;50.852;8.098;2022-07-17T00:12:32;4.90;;;1.92;;
9789;SDS011;4934;50.852;8.098;2022-07-17T00:14:58;4.97;;;2.50;;
9789;SDS011;4934;50.852;8.098;2022-07-17T00:17:24;6.85;;;2.88;;
9789;SDS011;4934;50.852;8.098;2022-07-17T00:19:49;6.93;;;2.20;;
9789;SDS011;4934;50.852;8.098;2022-07-17T00:22:15;6.60;;;1.80;;
9789;SDS011;4934;50.852;8.098;2022-07-17T00:24:40;4.53;;;2.13;;
9789;SDS011;4934;50.852;8.098;2022-07-17T00:27:06;2.35;;;1.73;;
9789;SDS011;4934;50.852;8.098;2022-07-17T00:29:32;5.65;;;2.15;;
9789;SDS011;4934;50.852;8.098;2022-07-17T00:31:57;4.95;;;2.08;;
9789;SDS011;4934;50.852;8.098;2022-07-17T00:34:23;4.40;;;1.80;;
9789;SDS011;4934;50.852;8.098;2022-07-17T00:36:49;6.85;;;2.50;;
9789;SDS011;4934;50.852;8.098;2022-07-17T00:39:15;7.43;;;2.47;;
9789;SDS011;4934;50.852;8.098;2022-07-17T00:41:42;5.30;;;2.20;;
9789;SDS011;4934;50.852;8.098;2022-07-17T00:44:09;2.75;;;2.10;;
9789;SDS011;4934;50.852;8.098;2022-07-17T00:46:37;4.53;;;2.47;;
9789;SDS011;4934;50.852;8.098;2022-07-17T00:49:05;4.82;;;2.35;;
9789;SDS011;4934;50.852;8.098;2022-07-17T00:51:31;4.88;;;2.08;;
9789;SDS011;4934;50.852;8.098;2022-07-17T00:53:57;4.65;;;2.10;;
9789;SDS011;4934;50.852;8.098;2022-07-17T00:56:24;3.88;;;2.00;;
9789;SDS011;4934;50.852;8.098;2022-07-17T00:58:50;4.57;;;1.75;;
9789;SDS011;4934;50.852;8.098;2022-07-17T01:01:16;5.68;;;2.17;;
9789;SDS011;4934;50.852;8.098;2022-07-17T01:03:42;6.72;;;2.40;;
9789;SDS011;4934;50.852;8.098;2022-07-17T01:06:08;5.97;;;1.92;;
9789;SDS011;4934;50.852;8.098;2022-07-17T01:08:34;6.07;;;2.08;;
9789;SDS011;4934;50.852;8.098;2022-07-17T01:11:01;2.95;;;1.80;;
9789;SDS011;4934;50.852;8.098;2022-07-17T01:13:27;2.33;;;1.70;;
9789;SDS011;4934;50.852;8.098;2022-07-17T01:15:54;2.28;;;1.70;;
9789;SDS011;4934;50.852;8.098;2022-07-17T01:18:20;3.80;;;1.77;;
9789;SDS011;4934;50.852;8.098;2022-07-17T01:20:46;5.10;;;2.50;;
9789;SDS011;4934;50.852;8.098;2022-07-17T01:23:13;6.20;;;2.30;;
9789;SDS011;4934;50.852;8.098;2022-07-17T01:25:40;6.43;;;2.95;;
9789;SDS011;4934;50.852;8.098;2022-07-17T01:28:06;7.55;;;2.63;;
9789;SDS011;4934;50.852;8.098;2022-07-17T01:30:33;3.97;;;2.30;;
9789;SDS011;4934;50.852;8.098;2022-07-17T01:32:59;4.65;;;2.72;;
9789;SDS011;4934;50.852;8.098;2022-07-17T01:35:25;4.20;;;2.50;;
9789;SDS011;4934;50.852;8.098;2022-07-17T01:37:50;4.25;;;2.45;;
9789;SDS011;4934;50.852;8.098;2022-07-17T01:40:16;5.03;;;1.90;;
9789;SDS011;4934;50.852;8.098;2022-07-17T01:42:44;5.05;;;1.73;;
9789;SDS011;4934;50.852;8.098;2022-07-17T01:45:11;5.37;;;2.20;;
9789;SDS011;4934;50.852;8.098;2022-07-17T01:47:38;6.60;;;2.15;;
9789;SDS011;4934;50.852;8.098;2022-07-17T01:50:04;3.72;;;1.95;;
9789;SDS011;4934;50.852;8.098;2022-07-17T01:52:30;3.80;;;2.13;;
9789;SDS011;4934;50.852;8.098;2022-07-17T01:54:59;2.55;;;2.00;;
9789;SDS011;4934;50.852;8.098;2022-07-17T01:57:25;4.45;;;2.75;;
9789;SDS011;4934;50.852;8.098;2022-07-17T01:59:50;3.30;;;2.10;;
9789;SDS011;4934;50.852;8.098;2022-07-17T02:02:16;6.00;;;2.50;;
9789;SDS011;4934;50.852;8.098;2022-07-17T02:04:43;6.90;;;2.63;;
9789;SDS011;4934;50.852;8.098;2022-07-17T02:07:10;4.63;;;2.03;;
9789;SDS011;4934;50.852;8.098;2022-07-17T02:09:36;3.42;;;2.35;;
9789;SDS011;4934;50.852;8.098;2022-07-17T02:12:02;8.68;;;2.30;;
9789;SDS011;4934;50.852;8.098;2022-07-17T02:14:29;4.38;;;1.92;;
9789;SDS011;4934;50.852;8.098;2022-07-17T02:16:55;6.75;;;2.30;;
9789;SDS011;4934;50.852;8.098;2022-07-17T02:19:21;5.13;;;2.00;;
9789;SDS011;4934;50.852;8.098;2022-07-17T02:21:46;4.03;;;2.10;;
9789;SDS011;4934;50.852;8.098;2022-07-17T02:24:12;3.83;;;1.90;;
9789;SDS011;4934;50.852;8.098;2022-07-17T02:26:38;2.53;;;2.05;;
9789;SDS011;4934;50.852;8.098;2022-07-17T02:29:04;6.10;;;1.90;;
9789;SDS011;4934;50.852;8.098;2022-07-17T02:31:30;4.03;;;1.88;;
9789;SDS011;4934;50.852;8.098;2022-07-17T02:33:55;3.08;;;1.73;;
9789;SDS011;4934;50.852;8.098;2022-07-17T02:36:21;6.88;;;2.30;;
9789;SDS011;4934;50.852;8.098;2022-07-17T02:38:46;3.67;;;2.03;;
9789;SDS011;4934;50.852;8.098;2022-07-17T02:41:12;4.28;;;1.95;;
9789;SDS011;4934;50.852;8.098;2022-07-17T02:43:38;3.80;;;2.03;;
9789;SDS011;4934;50.852;8.098;2022-07-17T02:46:03;5.45;;;2.13;;
9789;SDS011;4934;50.852;8.098;2022-07-17T02:48:29;5.72;;;2.30;;
9789;SDS011;4934;50.852;8.098;2022-07-17T02:50:54;4.65;;;2.58;;
9789;SDS011;4934;50.852;8.098;2022-07-17T02:53:20;5.30;;;2.45;;
9789;SDS011;4934;50.852;8.098;2022-07-17T02:55:46;6.45;;;2.25;;
9789;SDS011;4934;50.852;8.098;2022-07-17T02:58:11;5.40;;;2.50;;
9789;SDS011;4934;50.852;8.098;2022-07-17T03:00:37;4.93;;;2.22;;
9789;SDS011;4934;50.852;8.098;2022-07-17T03:03:03;3.78;;;1.88;;
9789;SDS011;4934;50.852;8.098;2022-07-17T03:05:28;2.55;;;1.90;;
9789;SDS011;4934;50.852;8.098;2022-07-17T03:07:54;2.10;;;1.45;;
9789;SDS011;4934;50.852;8.098;2022-07-17T03:10:20;4.65;;;1.70;;
9789;SDS011;4934;50.852;8.098;2022-07-17T03:12:46;7.80;;;2.33;;
9789;SDS011;4934;50.852;8.098;2022-07-17T03:15:11;3.40;;;1.70;;
9789;SDS011;4934;50.852;8.098;2022-07-17T03:17:38;4.00;;;1.70;;
9789;SDS011;4934;50.852;8.098;2022-07-17T03:20:04;4.45;;;2.15;;
9789;SDS011;4934;50.852;8.098;2022-07-17T03:22:30;4.25;;;1.90;;
9789;SDS011;4934;50.852;8.098;2022-07-17T03:24:56;4.40;;;1.77;;
9789;SDS011;4934;50.852;8.098;2022-07-17T03:27:21;4.78;;;2.10;;
9789;SDS011;4934;50.852;8.098;2022-07-17T03:29:47;3.25;;;1.92;;
9789;SDS011;4934;50.852;8.098;2022-07-17T03:32:12;2.65;;;1.63;;
9789;SDS011;4934;50.852;8.098;2022-07-17T03:34:39;3.63;;;1.80;;
9789;SDS011;4934;50.852;8.098;2022-07-17T03:37:04;6.18;;;1.95;;
9789;SDS011;4934;50.852;8.098;2022-07-17T03:39:30;3.97;;;1.60;;
9789;SDS011;4934;50.852;8.098;2022-07-17T03:41:56;3.10;;;1.58;;
9789;SDS011;4934;50.852;8.098;2022-07-17T03:44:22;4.53;;;2.35;;
9789;SDS011;4934;50.852;8.098;2022-07-17T03:46:48;4.93;;;2.20;;
9789;SDS011;4934;50.852;8.098;2022-07-17T03:49:14;3.70;;;2.00;;
9789;SDS011;4934;50.852;8.098;2022-07-17T03:51:40;6.60;;;1.70;;
9789;SDS011;4934;50.852;8.098;2022-07-17T03:54:05;3.95;;;1.80;;
9789;SDS011;4934;50.852;8.098;2022-07-17T03:56:31;4.90;;;1.75;;
9789;SDS011;4934;50.852;8.098;2022-07-17T03:58:56;3.65;;;1.70;;
9789;SDS011;4934;50.852;8.098;2022-07-17T04:01:22;5.60;;;1.55;;
9789;SDS011;4934;50.852;8.098;2022-07-17T04:03:48;5.82;;;1.90;;
9789;SDS011;4934;50.852;8.098;2022-07-17T04:06:13;2.42;;;1.58;;
9789;SDS011;4934;50.852;8.098;2022-07-17T04:08:39;3.28;;;1.63;;
9789;SDS011;4934;50.852;8.098;2022-07-17T04:11:05;2.78;;;2.05;;
9789;SDS011;4934;50.852;8.098;2022-07-17T04:13:30;10.45;;;2.70;;
9789;SDS011;4934;50.852;8.098;2022-07-17T04:15:56;5.00;;;2.10;;
9789;SDS011;4934;50.852;8.098;2022-07-17T04:18:23;3.33;;;1.60;;
9789;SDS011;4934;50.852;8.098;2022-07-17T04:20:50;4.38;;;2.08;;
9789;SDS011;4934;50.852;8.098;2022-07-17T04:23:16;2.83;;;2.00;;
9789;SDS011;4934;50.852;8.098;2022-07-17T04:25:53;9.80;;;2.15;;
9789;SDS011;4934;50.852;8.098;2022-07-17T04:28:19;6.00;;;2.00;;
9789;SDS011;4934;50.852;8.098;2022-07-17T04:30:45;5.18;;;2.10;;
9789;SDS011;4934;50.852;8.098;2022-07-17T04:33:11;4.65;;;2.10;;
9789;SDS011;4934;50.852;8.098;2022-07-17T04:35:37;5.30;;;2.53;;
9789;SDS011;4934;50.852;8.098;2022-07-17T04:38:04;4.85;;;2.60;;
9789;SDS011;4934;50.852;8.098;2022-07-17T04:40:31;5.72;;;2.47;;
9789;SDS011;4934;50.852;8.098;2022-07-17T04:42:57;3.85;;;2.13;;
9789;SDS011;4934;50.852;8.098;2022-07-17T04:45:23;8.43;;;2.20;;
9789;SDS011;4934;50.852;8.098;2022-07-17T04:47:48;3.42;;;2.13;;
9789;SDS011;4934;50.852;8.098;2022-07-17T04:50:14;3.08;;;2.00;;
9789;SDS011;4934;50.852;8.098;2022-07-17T04:52:40;3.58;;;1.88;;
9789;SDS011;4934;50.852;8.098;2022-07-17T04:55:06;7.53;;;2.30;;
9789;SDS011;4934;50.852;8.098;2022-07-17T04:57:32;3.95;;;1.77;;
9789;SDS011;4934;50.852;8.098;2022-07-17T04:59:58;9.85;;;2.40;;
9789;SDS011;4934;50.852;8.098;2022-07-17T05:02:23;8.23;;;2.50;;
9789;SDS011;4934;50.852;8.098;2022-07-17T05:04:49;4.28;;;2.53;;
9789;SDS011;4934;50.852;8.098;2022-07-17T05:07:15;9.65;;;2.40;;
9789;SDS011;4934;50.852;8.098;2022-07-17T05:09:41;2.88;;;2.20;;
9789;SDS011;4934;50.852;8.098;2022-07-17T05:12:07;5.88;;;2.40;;
9789;SDS011;4934;50.852;8.098;2022-07-17T05:14:33;6.15;;;3.00;;
9789;SDS011;4934;50.852;8.098;2022-07-17T05:16:59;5.70;;;3.85;;
9789;SDS011;4934;50.852;8.098;2022-07-17T05:19:25;4.10;;;2.28;;
9789;SDS011;4934;50.852;8.098;2022-07-17T05:21:51;3.60;;;1.98;;
9789;SDS011;4934;50.852;8.098;2022-07-17T05:24:16;7.28;;;2.40;;
9789;SDS011;4934;50.852;8.098;2022-07-17T05:26:42;3.45;;;2.03;;
9789;SDS011;4934;50.852;8.098;2022-07-17T05:29:07;7.75;;;1.95;;
9789;SDS011;4934;50.852;8.098;2022-07-17T05:31:33;4.80;;;2.17;;
9789;SDS011;4934;50.852;8.098;2022-07-17T05:33:59;2.47;;;2.10;;
9789;SDS011;4934;50.852;8.098;2022-07-17T05:36:24;2.83;;;2.08;;
9789;SDS011;4934;50.852;8.098;2022-07-17T05:38:50;3.90;;;2.00;;
9789;SDS011;4934;50.852;8.098;2022-07-17T05:41:16;3.45;;;2.00;;
9789;SDS011;4934;50.852;8.098;2022-07-17T05:43:41;4.82;;;2.15;;
9789;SDS011;4934;50.852;8.098;2022-07-17T05:46:07;5.90;;;2.15;;
9789;SDS011;4934;50.852;8.098;2022-07-17T05:48:32;6.47;;;2.28;;
9789;SDS011;4934;50.852;8.098;2022-07-17T05:50:58;4.63;;;2.10;;
9789;SDS011;4934;50.852;8.098;2022-07-17T05:53:24;5.72;;;1.98;;
9789;SDS011;4934;50.852;8.098;2022-07-17T05:55:55;6.40;;;2.33;;
9789;SDS011;4934;50.852;8.098;2022-07-17T05:58:21;2.08;;;1.80;;
9789;SDS011;4934;50.852;8.098;2022-07-17T06:00:47;2.83;;;1.90;;
9789;SDS011;4934;50.852;8.098;2022-07-17T06:03:14;3.53;;;1.73;;
9789;SDS011;4934;50.852;8.098;2022-07-17T06:05:40;6.00;;;1.80;;
9789;SDS011;4934;50.852;8.098;2022-07-17T06:08:05;4.13;;;1.67;;
9789;SDS011;4934;50.852;8.098;2022-07-17T06:10:32;10.10;;;2.65;;
9789;SDS011;4934;50.852;8.098;2022-07-17T06:12:57;4.65;;;1.60;;
9789;SDS011;4934;50.852;8.098;2022-07-17T06:15:23;2.70;;;1.73;;
9789;SDS011;4934;50.852;8.098;2022-07-17T06:17:50;4.93;;;1.70;;
9789;SDS011;4934;50.852;8.098;2022-07-17T06:20:16;2.95;;;1.60;;
9789;SDS011;4934;50.852;8.098;2022-07-17T06:22:42;8.52;;;1.90;;
9789;SDS011;4934;50.852;8.098;2022-07-17T06:25:08;2.75;;;1.55;;
9789;SDS011;4934;50.852;8.098;2022-07-17T06:27:35;3.25;;;1.48;;
9789;SDS011;4934;50.852;8.098;2022-07-17T06:30:03;6.20;;;1.50;;
9789;SDS011;4934;50.852;8.098;2022-07-17T06:32:29;6.22;;;1.70;;
9789;SDS011;4934;50.852;8.098;2022-07-17T06:34:55;10.02;;;1.60;;
9789;SDS011;4934;50.852;8.098;2022-07-17T06:37:21;2.53;;;1.33;;
9789;SDS011;4934;50.852;8.098;2022-07-17T06:39:49;3.63;;;1.80;;
9789;SDS011;4934;50.852;8.098;2022-07-17T06:42:16;4.55;;;1.42;;
9789;SDS011;4934;50.852;8.098;2022-07-17T06:47:54;2.20;;;1.40;;
9789;SDS011;4934;50.852;8.098;2022-07-17T06:50:20;4.38;;;1.80;;
9789;SDS011;4934;50.852;8.098;2022-07-17T06:52:46;9.10;;;1.45;;
9789;SDS011;4934;50.852;8.098;2022-07-17T06:55:11;6.38;;;1.45;;
9789;SDS011;4934;50.852;8.098;2022-07-17T06:57:37;3.95;;;1.48;;
9789;SDS011;4934;50.852;8.098;2022-07-17T07:00:03;6.35;;;2.58;;
9789;SDS011;4934;50.852;8.098;2022-07-17T07:02:32;2.30;;;1.40;;
9789;SDS011;4934;50.852;8.098;2022-07-17T07:04:57;7.03;;;1.67;;
9789;SDS011;4934;50.852;8.098;2022-07-17T07:07:23;5.28;;;1.52;;
9789;SDS011;4934;50.852;8.098;2022-07-17T07:09:49;3.33;;;1.20;;
9789;SDS011;4934;50.852;8.098;2022-07-17T07:12:14;6.47;;;1.90;;
9789;SDS011;4934;50.852;8.098;2022-07-17T07:14:40;4.55;;;1.25;;
9789;SDS011;4934;50.852;8.098;2022-07-17T07:17:05;6.38;;;1.02;;
9789;SDS011;4934;50.852;8.098;2022-07-17T07:19:31;5.28;;;1.52;;
9789;SDS011;4934;50.852;8.098;2022-07-17T07:21:57;2.85;;;1.10;;
9789;SDS011;4934;50.852;8.098;2022-07-17T07:24:22;3.60;;;1.10;;
9789;SDS011;4934;50.852;8.098;2022-07-17T07:26:48;5.55;;;1.65;;
9789;SDS011;4934;50.852;8.098;2022-07-17T07:29:13;2.67;;;1.00;;
9789;SDS011;4934;50.852;8.098;2022-07-17T07:31:39;5.30;;;1.40;;
9789;SDS011;4934;50.852;8.098;2022-07-17T07:34:05;3.47;;;1.20;;
9789;SDS011;4934;50.852;8.098;2022-07-17T07:36:30;4.63;;;1.27;;
9789;SDS011;4934;50.852;8.098;2022-07-17T07:38:56;7.45;;;1.15;;
9789;SDS011;4934;50.852;8.098;2022-07-17T07:41:22;8.18;;;1.20;;
9789;SDS011;4934;50.852;8.098;2022-07-17T07:43:47;4.88;;;1.10;;
9789;SDS011;4934;50.852;8.098;2022-07-17T07:46:13;9.35;;;1.50;;
9789;SDS011;4934;50.852;8.098;2022-07-17T07:48:39;2.85;;;0.90;;
9789;SDS011;4934;50.852;8.098;2022-07-17T07:51:04;7.80;;;1.13;;
9789;SDS011;4934;50.852;8.098;2022-07-17T07:53:30;6.47;;;1.25;;
9789;SDS011;4934;50.852;8.098;2022-07-17T07:55:55;3.47;;;0.85;;
9789;SDS011;4934;50.852;8.098;2022-07-17T07:58:21;4.10;;;1.17;;
9789;SDS011;4934;50.852;8.098;2022-07-17T08:00:47;6.15;;;1.20;;
9789;SDS011;4934;50.852;8.098;2022-07-17T08:03:12;4.40;;;1.15;;
9789;SDS011;4934;50.852;8.098;2022-07-17T08:05:38;2.30;;;0.65;;
9789;SDS011;4934;50.852;8.098;2022-07-17T08:08:04;7.22;;;1.20;;
9789;SDS011;4934;50.852;8.098;2022-07-17T08:10:33;2.75;;;1.20;;
9789;SDS011;4934;50.852;8.098;2022-07-17T08:13:25;1.95;;;0.73;;
9789;SDS011;4934;50.852;8.098;2022-07-17T08:15:51;7.70;;;1.15;;
9789;SDS011;4934;50.852;8.098;2022-07-17T08:18:16;4.32;;;0.90;;
9789;SDS011;4934;50.852;8.098;2022-07-17T08:20:42;4.40;;;1.05;;
9789;SDS011;4934;50.852;8.098;2022-07-17T08:23:08;4.22;;;0.93;;
9789;SDS011;4934;50.852;8.098;2022-07-17T08:25:33;3.20;;;0.88;;
9789;SDS011;4934;50.852;8.098;2022-07-17T08:28:00;4.30;;;0.90;;
9789;SDS011;4934;50.852;8.098;2022-07-17T08:30:25;5.82;;;1.17;;
9789;SDS011;4934;50.852;8.098;2022-07-17T08:32:51;5.53;;;1.05;;
9789;SDS011;4934;50.852;8.098;2022-07-17T08:35:17;5.63;;;0.98;;
9789;SDS011;4934;50.852;8.098;2022-07-17T08:37:43;4.60;;;0.80;;
9789;SDS011;4934;50.852;8.098;2022-07-17T08:40:17;1.55;;;0.80;;
9789;SDS011;4934;50.852;8.098;2022-07-17T08:42:44;6.95;;;0.82;;
9789;SDS011;4934;50.852;8.098;2022-07-17T08:45:10;4.22;;;0.80;;
9789;SDS011;4934;50.852;8.098;2022-07-17T08:47:37;5.22;;;1.23;;
9789;SDS011;4934;50.852;8.098;2022-07-17T08:50:04;2.00;;;0.75;;
9789;SDS011;4934;50.852;8.098;2022-07-17T08:52:30;12.32;;;1.58;;
9789;SDS011;4934;50.852;8.098;2022-07-17T08:54:56;2.92;;;0.80;;
9789;SDS011;4934;50.852;8.098;2022-07-17T08:57:22;6.38;;;1.15;;
9789;SDS011;4934;50.852;8.098;2022-07-17T08:59:48;5.20;;;1.30;;
9789;SDS011;4934;50.852;8.098;2022-07-17T09:02:13;3.42;;;0.88;;
9789;SDS011;4934;50.852;8.098;2022-07-17T09:04:39;7.13;;;1.50;;
9789;SDS011;4934;50.852;8.098;2022-07-17T09:07:05;5.25;;;0.90;;
9789;SDS011;4934;50.852;8.098;2022-07-17T09:09:31;6.57;;;1.00;;
9789;SDS011;4934;50.852;8.098;2022-07-17T09:11:59;7.25;;;1.00;;
9789;SDS011;4934;50.852;8.098;2022-07-17T09:14:35;6.63;;;1.15;;
9789;SDS011;4934;50.852;8.098;2022-07-17T09:17:03;6.15;;;1.20;;
9789;SDS011;4934;50.852;8.098;2022-07-17T09:19:31;4.68;;;1.27;;
9789;SDS011;4934;50.852;8.098;2022-07-17T09:24:48;3.85;;;1.17;;
9789;SDS011;4934;50.852;8.098;2022-07-17T09:29:59;3.03;;;0.80;;
9789;SDS011;4934;50.852;8.098;2022-07-17T09:32:29;2.72;;;0.88;;
9789;SDS011;4934;50.852;8.098;2022-07-17T09:34:59;6.53;;;1.20;;
9789;SDS011;4934;50.852;8.098;2022-07-17T09:37:25;4.07;;;1.13;;
9789;SDS011;4934;50.852;8.098;2022-07-17T09:39:54;3.95;;;1.10;;
9789;SDS011;4934;50.852;8.098;2022-07-17T09:45:01;2.50;;;0.70;;
9789;SDS011;4934;50.852;8.098;2022-07-17T09:47:28;5.25;;;0.77;;
9789;SDS011;4934;50.852;8.098;2022-07-17T09:49:56;1.55;;;0.75;;
9789;SDS011;4934;50.852;8.098;2022-07-17T09:52:23;2.35;;;0.68;;
9789;SDS011;4934;50.852;8.098;2022-07-17T09:54:52;1.65;;;0.75;;
9789;SDS011;4934;50.852;8.098;2022-07-17T09:57:20;4.82;;;1.10;;
9789;SDS011;4934;50.852;8.098;2022-07-17T09:59:49;5.28;;;0.93;;
9789;SDS011;4934;50.852;8.098;2022-07-17T10:02:17;5.38;;;1.27;;
9789;SDS011;4934;50.852;8.098;2022-07-17T10:04:45;2.45;;;1.05;;
9789;SDS011;4934;50.852;8.098;2022-07-17T10:07:12;2.42;;;0.75;;
9789;SDS011;4934;50.852;8.098;2022-07-17T10:09:38;4.53;;;0.90;;
9789;SDS011;4934;50.852;8.098;2022-07-17T10:12:05;2.78;;;0.73;;
9789;SDS011;4934;50.852;8.098;2022-07-17T10:14:32;5.77;;;0.90;;
9789;SDS011;4934;50.852;8.098;2022-07-17T10:17:05;2.67;;;0.60;;
9789;SDS011;4934;50.852;8.098;2022-07-17T10:19:54;3.67;;;1.45;;
9789;SDS011;4934;50.852;8.098;2022-07-17T10:22:20;4.15;;;0.90;;
9789;SDS011;4934;50.852;8.098;2022-07-17T10:24:53;2.40;;;1.02;;
9789;SDS011;4934;50.852;8.098;2022-07-17T10:27:24;5.38;;;1.08;;
9789;SDS011;4934;50.852;8.098;2022-07-17T10:29:59;2.08;;;0.98;;
9789;SDS011;4934;50.852;8.098;2022-07-17T10:32:25;4.78;;;0.70;;
9789;SDS011;4934;50.852;8.098;2022-07-17T10:34:58;1.75;;;0.80;;
9789;SDS011;4934;50.852;8.098;2022-07-17T10:37:32;2.80;;;0.75;;
9789;SDS011;4934;50.852;8.098;2022-07-17T10:45:16;1.65;;;0.80;;
9789;SDS011;4934;50.852;8.098;2022-07-17T10:47:51;5.68;;;1.30;;
9789;SDS011;4934;50.852;8.098;2022-07-17T10:50:21;3.20;;;0.93;;
9789;SDS011;4934;50.852;8.098;2022-07-17T10:52:59;4.03;;;0.90;;
9789;SDS011;4934;50.852;8.098;2022-07-17T10:55:24;2.47;;;0.80;;
9789;SDS011;4934;50.852;8.098;2022-07-17T10:57:50;3.78;;;1.17;;
9789;SDS011;4934;50.852;8.098;2022-07-17T11:00:16;2.13;;;0.65;;
9789;SDS011;4934;50.852;8.098;2022-07-17T11:02:42;7.90;;;1.00;;
9789;SDS011;4934;50.852;8.098;2022-07-17T11:05:09;1.63;;;0.80;;
9789;SDS011;4934;50.852;8.098;2022-07-17T11:07:47;2.92;;;0.65;;
9789;SDS011;4934;50.852;8.098;2022-07-17T11:10:17;2.95;;;0.80;;
9789;SDS011;4934;50.852;8.098;2022-07-17T11:12:43;2.20;;;0.80;;
9789;SDS011;4934;50.852;8.098;2022-07-17T11:15:09;2.70;;;0.70;;
9789;SDS011;4934;50.852;8.098;2022-07-17T11:17:34;3.78;;;0.75;;
9789;SDS011;4934;50.852;8.098;2022-07-17T11:20:01;2.08;;;0.65;;
9789;SDS011;4934;50.852;8.098;2022-07-17T11:22:28;3.50;;;0.65;;
9789;SDS011;4934;50.852;8.098;2022-07-17T11:24:53;5.93;;;0.90;;
9789;SDS011;4934;50.852;8.098;2022-07-17T11:27:21;2.22;;;0.88;;
9789;SDS011;4934;50.852;8.098;2022-07-17T11:29:48;2.47;;;0.50;;
9789;SDS011;4934;50.852;8.098;2022-07-17T11:32:14;1.95;;;1.08;;
9789;SDS011;4934;50.852;8.098;2022-07-17T11:34:40;2.35;;;0.80;;
9789;SDS011;4934;50.852;8.098;2022-07-17T11:37:06;2.60;;;0.88;;
9789;SDS011;4934;50.852;8.098;2022-07-17T11:42:08;2.33;;;0.80;;
9789;SDS011;4934;50.852;8.098;2022-07-17T11:44:35;2.60;;;1.15;;
9789;SDS011;4934;50.852;8.098;2022-07-17T11:47:01;2.38;;;0.90;;
9789;SDS011;4934;50.852;8.098;2022-07-17T11:49:28;1.50;;;0.77;;
9789;SDS011;4934;50.852;8.098;2022-07-17T11:51:57;3.20;;;0.73;;
9789;SDS011;4934;50.852;8.098;2022-07-17T11:54:31;5.00;;;0.80;;
9789;SDS011;4934;50.852;8.098;2022-07-17T11:56:57;1.88;;;0.80;;
9789;SDS011;4934;50.852;8.098;2022-07-17T11:59:24;5.43;;;0.80;;
9789;SDS011;4934;50.852;8.098;2022-07-17T12:01:50;3.88;;;0.80;;
9789;SDS011;4934;50.852;8.098;2022-07-17T12:04:16;1.60;;;0.80;;
9789;SDS011;4934;50.852;8.098;2022-07-17T12:06:42;4.90;;;0.90;;
9789;SDS011;4934;50.852;8.098;2022-07-17T12:09:09;2.60;;;0.63;;
9789;SDS011;4934;50.852;8.098;2022-07-17T12:11:55;2.10;;;0.70;;
9789;SDS011;4934;50.852;8.098;2022-07-17T12:14:20;3.75;;;0.80;;
9789;SDS011;4934;50.852;8.098;2022-07-17T12:16:46;5.90;;;0.85;;
9789;SDS011;4934;50.852;8.098;2022-07-17T12:19:16;2.08;;;0.80;;
9789;SDS011;4934;50.852;8.098;2022-07-17T12:24:32;3.78;;;0.90;;
9789;SDS011;4934;50.852;8.098;2022-07-17T12:27:01;3.40;;;0.82;;
9789;SDS011;4934;50.852;8.098;2022-07-17T12:29:29;1.70;;;0.70;;
9789;SDS011;4934;50.852;8.098;2022-07-17T12:32:11;4.20;;;0.85;;
9789;SDS011;4934;50.852;8.098;2022-07-17T12:34:39;3.33;;;0.90;;
9789;SDS011;4934;50.852;8.098;2022-07-17T12:37:12;4.28;;;1.00;;
9789;SDS011;4934;50.852;8.098;2022-07-17T12:39:38;2.58;;;0.80;;
9789;SDS011;4934;50.852;8.098;2022-07-17T12:42:03;3.72;;;0.90;;
9789;SDS011;4934;50.852;8.098;2022-07-17T12:44:29;2.03;;;1.00;;
9789;SDS011;4934;50.852;8.098;2022-07-17T12:46:55;9.35;;;1.10;;
9789;SDS011;4934;50.852;8.098;2022-07-17T12:49:21;4.63;;;0.75;;
9789;SDS011;4934;50.852;8.098;2022-07-17T12:51:48;4.55;;;0.85;;
9789;SDS011;4934;50.852;8.098;2022-07-17T12:54:14;1.48;;;0.77;;
9789;SDS011;4934;50.852;8.098;2022-07-17T12:56:41;5.38;;;0.80;;
9789;SDS011;4934;50.852;8.098;2022-07-17T12:59:07;3.88;;;0.90;;
9789;SDS011;4934;50.852;8.098;2022-07-17T13:01:33;4.32;;;0.82;;
9789;SDS011;4934;50.852;8.098;2022-07-17T13:03:59;2.05;;;1.00;;
9789;SDS011;4934;50.852;8.098;2022-07-17T13:06:25;3.53;;;1.08;;
9789;SDS011;4934;50.852;8.098;2022-07-17T13:08:51;2.33;;;0.80;;
9789;SDS011;4934;50.852;8.098;2022-07-17T13:11:17;4.57;;;0.70;;
9789;SDS011;4934;50.852;8.098;2022-07-17T13:13:43;5.53;;;0.70;;
9789;SDS011;4934;50.852;8.098;2022-07-17T13:16:09;2.97;;;0.88;;
9789;SDS011;4934;50.852;8.098;2022-07-17T13:18:36;6.60;;;1.30;;
9789;SDS011;4934;50.852;8.098;2022-07-17T13:21:02;6.47;;;0.95;;
9789;SDS011;4934;50.852;8.098;2022-07-17T13:23:28;3.72;;;0.80;;
9789;SDS011;4934;50.852;8.098;2022-07-17T13:25:53;2.35;;;0.50;;
9789;SDS011;4934;50.852;8.098;2022-07-17T13:28:19;2.78;;;0.95;;
9789;SDS011;4934;50.852;8.098;2022-07-17T13:30:45;6.53;;;1.42;;
9789;SDS011;4934;50.852;8.098;2022-07-17T13:33:12;3.58;;;0.88;;
9789;SDS011;4934;50.852;8.098;2022-07-17T13:35:38;1.92;;;0.70;;
9789;SDS011;4934;50.852;8.098;2022-07-17T13:38:03;2.70;;;1.00;;
9789;SDS011;4934;50.852;8.098;2022-07-17T13:40:32;2.47;;;0.90;;
9789;SDS011;4934;50.852;8.098;2022-07-17T13:42:58;1.63;;;0.60;;
9789;SDS011;4934;50.852;8.098;2022-07-17T13:45:25;3.70;;;0.70;;
9789;SDS011;4934;50.852;8.098;2022-07-17T13:47:51;2.55;;;0.77;;
9789;SDS011;4934;50.852;8.098;2022-07-17T13:50:16;2.25;;;0.77;;
9789;SDS011;4934;50.852;8.098;2022-07-17T13:52:42;2.30;;;1.15;;
9789;SDS011;4934;50.852;8.098;2022-07-17T13:55:08;4.18;;;0.98;;
9789;SDS011;4934;50.852;8.098;2022-07-17T13:57:33;5.43;;;0.90;;
9789;SDS011;4934;50.852;8.098;2022-07-17T13:59:59;4.13;;;0.60;;
9789;SDS011;4934;50.852;8.098;2022-07-17T14:02:26;3.00;;;1.23;;
9789;SDS011;4934;50.852;8.098;2022-07-17T14:04:54;4.55;;;0.85;;
9789;SDS011;4934;50.852;8.098;2022-07-17T14:07:19;2.20;;;0.75;;
9789;SDS011;4934;50.852;8.098;2022-07-17T14:09:45;8.50;;;0.95;;
9789;SDS011;4934;50.852;8.098;2022-07-17T14:12:11;2.72;;;1.23;;
9789;SDS011;4934;50.852;8.098;2022-07-17T14:14:37;2.80;;;1.05;;
9789;SDS011;4934;50.852;8.098;2022-07-17T14:17:02;2.45;;;0.88;;
9789;SDS011;4934;50.852;8.098;2022-07-17T14:19:30;3.70;;;1.10;;
9789;SDS011;4934;50.852;8.098;2022-07-17T14:21:55;2.92;;;0.93;;
9789;SDS011;4934;50.852;8.098;2022-07-17T14:24:21;1.30;;;0.60;;
9789;SDS011;4934;50.852;8.098;2022-07-17T14:26:47;2.42;;;0.80;;
9789;SDS011;4934;50.852;8.098;2022-07-17T14:29:13;3.33;;;0.90;;
9789;SDS011;4934;50.852;8.098;2022-07-17T14:31:39;1.98;;;0.77;;
9789;SDS011;4934;50.852;8.098;2022-07-17T14:34:05;3.92;;;0.90;;
9789;SDS011;4934;50.852;8.098;2022-07-17T14:36:34;3.90;;;0.70;;
9789;SDS011;4934;50.852;8.098;2022-07-17T14:39:00;3.13;;;0.85;;
9789;SDS011;4934;50.852;8.098;2022-07-17T14:41:25;2.95;;;0.68;;
9789;SDS011;4934;50.852;8.098;2022-07-17T14:43:51;2.33;;;0.75;;
9789;SDS011;4934;50.852;8.098;2022-07-17T14:46:18;2.65;;;0.70;;
9789;SDS011;4934;50.852;8.098;2022-07-17T14:48:44;1.73;;;0.75;;
9789;SDS011;4934;50.852;8.098;2022-07-17T14:51:09;2.85;;;0.63;;
9789;SDS011;4934;50.852;8.098;2022-07-17T14:53:35;3.33;;;0.65;;
9789;SDS011;4934;50.852;8.098;2022-07-17T14:56:01;1.50;;;0.60;;
9789;SDS011;4934;50.852;8.098;2022-07-17T14:58:27;1.77;;;0.80;;
9789;SDS011;4934;50.852;8.098;2022-07-17T15:00:53;1.65;;;1.42;;
9789;SDS011;4934;50.852;8.098;2022-07-17T15:03:19;3.72;;;0.70;;
9789;SDS011;4934;50.852;8.098;2022-07-17T15:05:44;2.58;;;0.98;;
9789;SDS011;4934;50.852;8.098;2022-07-17T15:08:10;1.58;;;0.77;;
9789;SDS011;4934;50.852;8.098;2022-07-17T15:10:35;2.50;;;0.90;;
9789;SDS011;4934;50.852;8.098;2022-07-17T15:13:01;3.97;;;0.77;;
9789;SDS011;4934;50.852;8.098;2022-07-17T15:15:27;2.72;;;0.90;;
9789;SDS011;4934;50.852;8.098;2022-07-17T15:17:53;1.10;;;0.65;;
9789;SDS011;4934;50.852;8.098;2022-07-17T15:20:19;2.30;;;0.70;;
9789;SDS011;4934;50.852;8.098;2022-07-17T15:22:45;3.67;;;1.08;;
9789;SDS011;4934;50.852;8.098;2022-07-17T15:25:11;6.22;;;0.80;;
9789;SDS011;4934;50.852;8.098;2022-07-17T15:27:37;1.83;;;0.80;;
9789;SDS011;4934;50.852;8.098;2022-07-17T15:30:02;2.15;;;0.90;;
9789;SDS011;4934;50.852;8.098;2022-07-17T15:32:29;2.80;;;0.80;;